sensor_id;sensor_type;location;lat;lon;timestamp;P1;durP1;ratioP1;P2;durP2;ratioP2
11173;SDS011;5643;50.856;12.088;2023-10-09T00:04:49;1.00;;;1.00;;
11173;SDS011;5643;50.856;12.088;2023-10-09T00:06:00;1.07;;;0.97;;
11173;SDS011;5643;50.856;12.088;2023-10-09T00:08:29;1.10;;;1.07;;
11173;SDS011;5643;50.856;12.088;2023-10-09T00:14:17;1.00;;;1.00;;
11173;SDS011;5643;50.856;12.088;2023-10-09T00:16:45;1.10;;;1.10;;
11173;SDS011;5643;50.856;12.088;2023-10-09T00:19:55;1.13;;;1.00;;
11173;SDS011;5643;50.856;12.088;2023-10-09T00:26:12;1.10;;;1.00;;
11173;SDS011;5643;50.856;12.088;2023-10-09T00:28:42;1.13;;;1.10;;
11173;SDS011;5643;50.856;12.088;2023-10-09T00:31:25;1.00;;;1.00;;
11173;SDS011;5643;50.856;12.088;2023-10-09T00:34:48;0.90;;;0.90;;
11173;SDS011;5643;50.856;12.088;2023-10-09T00:38:00;0.80;;;0.80;;
11173;SDS011;5643;50.856;12.088;2023-10-09T00:40:56;0.90;;;0.90;;
11173;SDS011;5643;50.856;12.088;2023-10-09T00:46:42;0.90;;;0.90;;
11173;SDS011;5643;50.856;12.088;2023-10-09T00:49:13;0.80;;;0.80;;
11173;SDS011;5643;50.856;12.088;2023-10-09T00:51:57;0.93;;;0.93;;
11173;SDS011;5643;50.856;12.088;2023-10-09T00:58:22;0.80;;;0.80;;
11173;SDS011;5643;50.856;12.088;2023-10-09T01:00:59;0.73;;;0.73;;
11173;SDS011;5643;50.856;12.088;2023-10-09T01:16:50;0.80;;;0.80;;
11173;SDS011;5643;50.856;12.088;2023-10-09T01:19:20;0.83;;;0.83;;
11173;SDS011;5643;50.856;12.088;2023-10-09T01:21:57;0.87;;;0.87;;
11173;SDS011;5643;50.856;12.088;2023-10-09T01:24:42;0.80;;;0.80;;
11173;SDS011;5643;50.856;12.088;2023-10-09T01:27:10;0.97;;;0.97;;
11173;SDS011;5643;50.856;12.088;2023-10-09T01:29:40;1.17;;;0.90;;
11173;SDS011;5643;50.856;12.088;2023-10-09T01:38:29;0.70;;;0.70;;
11173;SDS011;5643;50.856;12.088;2023-10-09T01:41:09;0.73;;;0.70;;
11173;SDS011;5643;50.856;12.088;2023-10-09T01:43:42;0.83;;;0.83;;
11173;SDS011;5643;50.856;12.088;2023-10-09T01:49:43;0.80;;;0.80;;
11173;SDS011;5643;50.856;12.088;2023-10-09T01:53:45;0.77;;;0.73;;
11173;SDS011;5643;50.856;12.088;2023-10-09T01:56:15;0.80;;;0.80;;
11173;SDS011;5643;50.856;12.088;2023-10-09T01:59:44;0.73;;;0.73;;
11173;SDS011;5643;50.856;12.088;2023-10-09T02:02:06;0.83;;;0.83;;
11173;SDS011;5643;50.856;12.088;2023-10-09T02:04:59;1.10;;;1.00;;
11173;SDS011;5643;50.856;12.088;2023-10-09T02:11:22;0.90;;;0.90;;
11173;SDS011;5643;50.856;12.088;2023-10-09T02:14:09;0.80;;;0.80;;
11173;SDS011;5643;50.856;12.088;2023-10-09T02:16:47;0.87;;;0.87;;
11173;SDS011;5643;50.856;12.088;2023-10-09T02:26:32;1.20;;;1.10;;
11173;SDS011;5643;50.856;12.088;2023-10-09T02:29:23;2.83;;;1.33;;
11173;SDS011;5643;50.856;12.088;2023-10-09T02:32:04;1.10;;;1.10;;
11173;SDS011;5643;50.856;12.088;2023-10-09T02:35:12;1.60;;;1.20;;
11173;SDS011;5643;50.856;12.088;2023-10-09T02:38:10;1.10;;;1.10;;
11173;SDS011;5643;50.856;12.088;2023-10-09T02:41:00;1.50;;;1.40;;
11173;SDS011;5643;50.856;12.088;2023-10-09T02:43:53;1.50;;;1.40;;
11173;SDS011;5643;50.856;12.088;2023-10-09T02:49:30;1.50;;;1.40;;
11173;SDS011;5643;50.856;12.088;2023-10-09T02:52:07;1.87;;;1.30;;
11173;SDS011;5643;50.856;12.088;2023-10-09T02:54:46;1.50;;;1.40;;
11173;SDS011;5643;50.856;12.088;2023-10-09T02:57:15;1.60;;;1.50;;
11173;SDS011;5643;50.856;12.088;2023-10-09T02:59:51;1.40;;;1.30;;
11173;SDS011;5643;50.856;12.088;2023-10-09T03:02:20;1.30;;;1.20;;
11173;SDS011;5643;50.856;12.088;2023-10-09T03:05:07;1.20;;;1.20;;
11173;SDS011;5643;50.856;12.088;2023-10-09T03:08:03;1.00;;;1.00;;
11173;SDS011;5643;50.856;12.088;2023-10-09T03:11:37;1.30;;;1.20;;
11173;SDS011;5643;50.856;12.088;2023-10-09T03:14:28;1.50;;;1.40;;
11173;SDS011;5643;50.856;12.088;2023-10-09T03:17:35;2.10;;;1.90;;
11173;SDS011;5643;50.856;12.088;2023-10-09T03:20:27;2.37;;;2.10;;
11173;SDS011;5643;50.856;12.088;2023-10-09T03:25:05;1.80;;;1.70;;
11173;SDS011;5643;50.856;12.088;2023-10-09T03:26:45;2.20;;;1.90;;
11173;SDS011;5643;50.856;12.088;2023-10-09T03:29:17;2.03;;;1.83;;
11173;SDS011;5643;50.856;12.088;2023-10-09T03:32:04;2.00;;;1.80;;
11173;SDS011;5643;50.856;12.088;2023-10-09T03:37:57;2.17;;;1.90;;
11173;SDS011;5643;50.856;12.088;2023-10-09T03:40:45;1.60;;;1.50;;
11173;SDS011;5643;50.856;12.088;2023-10-09T03:50:27;1.90;;;1.70;;
11173;SDS011;5643;50.856;12.088;2023-10-09T03:56:13;1.77;;;1.67;;
11173;SDS011;5643;50.856;12.088;2023-10-09T03:58:42;1.83;;;1.73;;
11173;SDS011;5643;50.856;12.088;2023-10-09T04:01:23;1.73;;;1.60;;
11173;SDS011;5643;50.856;12.088;2023-10-09T04:05:28;1.80;;;1.63;;
11173;SDS011;5643;50.856;12.088;2023-10-09T04:08:02;1.90;;;1.70;;
11173;SDS011;5643;50.856;12.088;2023-10-09T04:13:14;1.73;;;1.63;;
11173;SDS011;5643;50.856;12.088;2023-10-09T04:13:56;1.70;;;1.60;;
11173;SDS011;5643;50.856;12.088;2023-10-09T04:16:37;1.53;;;1.43;;
11173;SDS011;5643;50.856;12.088;2023-10-09T04:19:23;1.60;;;1.50;;
11173;SDS011;5643;50.856;12.088;2023-10-09T04:22:13;1.67;;;1.57;;
11173;SDS011;5643;50.856;12.088;2023-10-09T04:24:57;1.50;;;1.40;;
11173;SDS011;5643;50.856;12.088;2023-10-09T04:27:29;1.67;;;1.57;;
11173;SDS011;5643;50.856;12.088;2023-10-09T04:30:06;1.60;;;1.50;;
11173;SDS011;5643;50.856;12.088;2023-10-09T04:32:46;1.60;;;1.50;;
11173;SDS011;5643;50.856;12.088;2023-10-09T04:38:34;1.50;;;1.40;;
11173;SDS011;5643;50.856;12.088;2023-10-09T04:41:06;1.50;;;1.40;;
11173;SDS011;5643;50.856;12.088;2023-10-09T04:43:37;1.40;;;1.30;;
11173;SDS011;5643;50.856;12.088;2023-10-09T04:46:20;1.53;;;1.43;;
11173;SDS011;5643;50.856;12.088;2023-10-09T04:48:56;1.60;;;1.50;;
11173;SDS011;5643;50.856;12.088;2023-10-09T04:51:47;1.30;;;1.20;;
11173;SDS011;5643;50.856;12.088;2023-10-09T04:54:33;1.60;;;1.50;;
11173;SDS011;5643;50.856;12.088;2023-10-09T04:57:26;1.90;;;1.80;;
11173;SDS011;5643;50.856;12.088;2023-10-09T05:06:03;1.80;;;1.70;;
11173;SDS011;5643;50.856;12.088;2023-10-09T05:08:49;1.53;;;1.43;;
11173;SDS011;5643;50.856;12.088;2023-10-09T05:11:25;2.33;;;1.50;;
11173;SDS011;5643;50.856;12.088;2023-10-09T05:14:23;1.70;;;1.60;;
11173;SDS011;5643;50.856;12.088;2023-10-09T05:17:35;1.77;;;1.67;;
11173;SDS011;5643;50.856;12.088;2023-10-09T05:20:20;1.80;;;1.70;;
11173;SDS011;5643;50.856;12.088;2023-10-09T05:23:21;1.40;;;1.30;;
11173;SDS011;5643;50.856;12.088;2023-10-09T05:26:13;1.70;;;1.60;;
11173;SDS011;5643;50.856;12.088;2023-10-09T05:29:07;1.70;;;1.60;;
11173;SDS011;5643;50.856;12.088;2023-10-09T05:31:58;1.60;;;1.50;;
11173;SDS011;5643;50.856;12.088;2023-10-09T05:34:44;1.93;;;1.83;;
11173;SDS011;5643;50.856;12.088;2023-10-09T05:40:52;1.90;;;1.80;;
11173;SDS011;5643;50.856;12.088;2023-10-09T05:44:14;2.10;;;2.00;;
11173;SDS011;5643;50.856;12.088;2023-10-09T05:47:25;1.90;;;1.80;;
11173;SDS011;5643;50.856;12.088;2023-10-09T05:50:18;2.07;;;1.80;;
11173;SDS011;5643;50.856;12.088;2023-10-09T05:53:08;2.43;;;2.23;;
11173;SDS011;5643;50.856;12.088;2023-10-09T05:56:32;2.47;;;2.27;;
11173;SDS011;5643;50.856;12.088;2023-10-09T05:59:20;2.50;;;2.30;;
11173;SDS011;5643;50.856;12.088;2023-10-09T06:02:07;2.10;;;1.90;;
11173;SDS011;5643;50.856;12.088;2023-10-09T06:04:56;2.80;;;2.60;;
11173;SDS011;5643;50.856;12.088;2023-10-09T06:07:42;2.60;;;2.10;;
11173;SDS011;5643;50.856;12.088;2023-10-09T06:10:40;3.23;;;2.40;;
11173;SDS011;5643;50.856;12.088;2023-10-09T06:13:19;2.60;;;2.40;;
11173;SDS011;5643;50.856;12.088;2023-10-09T06:16:16;2.43;;;2.23;;
11173;SDS011;5643;50.856;12.088;2023-10-09T06:18:58;2.33;;;2.13;;
11173;SDS011;5643;50.856;12.088;2023-10-09T06:21:34;2.70;;;2.50;;
11173;SDS011;5643;50.856;12.088;2023-10-09T06:24:22;2.60;;;2.40;;
11173;SDS011;5643;50.856;12.088;2023-10-09T06:26:55;2.47;;;2.27;;
11173;SDS011;5643;50.856;12.088;2023-10-09T06:29:55;2.27;;;2.07;;
11173;SDS011;5643;50.856;12.088;2023-10-09T06:32:47;2.37;;;2.17;;
11173;SDS011;5643;50.856;12.088;2023-10-09T06:38:13;2.37;;;2.17;;
11173;SDS011;5643;50.856;12.088;2023-10-09T06:40:50;2.60;;;2.40;;
11173;SDS011;5643;50.856;12.088;2023-10-09T06:43:38;2.30;;;2.10;;
11173;SDS011;5643;50.856;12.088;2023-10-09T06:49:32;2.00;;;1.80;;
11173;SDS011;5643;50.856;12.088;2023-10-09T06:52:22;2.40;;;2.20;;
11173;SDS011;5643;50.856;12.088;2023-10-09T06:55:14;2.60;;;2.40;;
11173;SDS011;5643;50.856;12.088;2023-10-09T06:57:58;3.00;;;2.53;;
11173;SDS011;5643;50.856;12.088;2023-10-09T07:00:38;2.80;;;2.57;;
11173;SDS011;5643;50.856;12.088;2023-10-09T07:03:29;3.10;;;2.80;;
11173;SDS011;5643;50.856;12.088;2023-10-09T07:06:22;2.80;;;2.60;;
11173;SDS011;5643;50.856;12.088;2023-10-09T07:09:14;2.70;;;2.50;;
11173;SDS011;5643;50.856;12.088;2023-10-09T07:11:49;2.90;;;2.70;;
11173;SDS011;5643;50.856;12.088;2023-10-09T07:14:51;2.40;;;2.20;;
11173;SDS011;5643;50.856;12.088;2023-10-09T07:17:48;2.97;;;2.77;;
11173;SDS011;5643;50.856;12.088;2023-10-09T07:20:18;2.93;;;2.63;;
11173;SDS011;5643;50.856;12.088;2023-10-09T07:33:06;2.97;;;2.77;;
11173;SDS011;5643;50.856;12.088;2023-10-09T07:38:42;2.67;;;2.47;;
11173;SDS011;5643;50.856;12.088;2023-10-09T07:42:08;2.97;;;2.67;;
11173;SDS011;5643;50.856;12.088;2023-10-09T07:44:58;2.50;;;2.30;;
11173;SDS011;5643;50.856;12.088;2023-10-09T07:47:41;2.60;;;2.40;;
11173;SDS011;5643;50.856;12.088;2023-10-09T07:50:34;2.87;;;2.63;;
11173;SDS011;5643;50.856;12.088;2023-10-09T07:53:22;2.63;;;2.43;;
11173;SDS011;5643;50.856;12.088;2023-10-09T07:56:04;2.60;;;2.40;;
11173;SDS011;5643;50.856;12.088;2023-10-09T07:58:35;2.60;;;2.40;;
11173;SDS011;5643;50.856;12.088;2023-10-09T08:01:12;2.50;;;2.30;;
11173;SDS011;5643;50.856;12.088;2023-10-09T08:03:50;2.77;;;2.40;;
11173;SDS011;5643;50.856;12.088;2023-10-09T08:06:45;2.33;;;2.23;;
11173;SDS011;5643;50.856;12.088;2023-10-09T08:09:15;2.37;;;2.17;;
11173;SDS011;5643;50.856;12.088;2023-10-09T08:12:06;3.00;;;2.70;;
11173;SDS011;5643;50.856;12.088;2023-10-09T08:15:17;2.77;;;2.50;;
11173;SDS011;5643;50.856;12.088;2023-10-09T08:18:11;2.70;;;2.50;;
11173;SDS011;5643;50.856;12.088;2023-10-09T08:27:49;3.20;;;3.00;;
11173;SDS011;5643;50.856;12.088;2023-10-09T08:30:26;3.10;;;2.80;;
11173;SDS011;5643;50.856;12.088;2023-10-09T08:33:18;2.47;;;2.27;;
11173;SDS011;5643;50.856;12.088;2023-10-09T08:36:28;2.37;;;2.17;;
11173;SDS011;5643;50.856;12.088;2023-10-09T08:48:25;2.40;;;2.20;;
11173;SDS011;5643;50.856;12.088;2023-10-09T08:51:12;2.30;;;2.10;;
11173;SDS011;5643;50.856;12.088;2023-10-09T08:56:39;2.40;;;2.20;;
11173;SDS011;5643;50.856;12.088;2023-10-09T08:59:26;2.83;;;2.53;;
11173;SDS011;5643;50.856;12.088;2023-10-09T09:02:03;2.60;;;2.40;;
11173;SDS011;5643;50.856;12.088;2023-10-09T09:19:48;2.93;;;2.53;;
11173;SDS011;5643;50.856;12.088;2023-10-09T09:22:22;2.47;;;2.27;;
11173;SDS011;5643;50.856;12.088;2023-10-09T09:24:58;2.37;;;2.17;;
11173;SDS011;5643;50.856;12.088;2023-10-09T09:28:06;2.70;;;2.50;;
11173;SDS011;5643;50.856;12.088;2023-10-09T09:31:12;2.47;;;2.27;;
11173;SDS011;5643;50.856;12.088;2023-10-09T09:33:46;2.20;;;2.00;;
11173;SDS011;5643;50.856;12.088;2023-10-09T09:40:25;2.40;;;2.07;;
11173;SDS011;5643;50.856;12.088;2023-10-09T09:43:13;2.17;;;2.07;;
11173;SDS011;5643;50.856;12.088;2023-10-09T09:45:50;2.63;;;2.43;;
11173;SDS011;5643;50.856;12.088;2023-10-09T09:48:48;2.40;;;2.20;;
11173;SDS011;5643;50.856;12.088;2023-10-09T09:51:53;3.17;;;2.60;;
11173;SDS011;5643;50.856;12.088;2023-10-09T10:15:20;3.23;;;2.90;;
11173;SDS011;5643;50.856;12.088;2023-10-09T10:24:00;2.87;;;2.60;;
11173;SDS011;5643;50.856;12.088;2023-10-09T10:26:36;3.23;;;2.80;;
11173;SDS011;5643;50.856;12.088;2023-10-09T10:29:28;2.90;;;2.60;;
11173;SDS011;5643;50.856;12.088;2023-10-09T10:32:16;2.90;;;2.37;;
11173;SDS011;5643;50.856;12.088;2023-10-09T10:34:56;2.57;;;2.37;;
11173;SDS011;5643;50.856;12.088;2023-10-09T10:37:38;2.87;;;2.00;;
11173;SDS011;5643;50.856;12.088;2023-10-09T10:40:26;2.83;;;2.03;;
11173;SDS011;5643;50.856;12.088;2023-10-09T10:43:18;2.67;;;2.10;;
11173;SDS011;5643;50.856;12.088;2023-10-09T10:46:09;2.60;;;2.40;;
11173;SDS011;5643;50.856;12.088;2023-10-09T10:49:02;2.47;;;2.27;;
11173;SDS011;5643;50.856;12.088;2023-10-09T10:51:42;2.40;;;2.20;;
11173;SDS011;5643;50.856;12.088;2023-10-09T10:54:31;2.10;;;1.90;;
11173;SDS011;5643;50.856;12.088;2023-10-09T10:57:36;2.37;;;2.03;;
11173;SDS011;5643;50.856;12.088;2023-10-09T11:00:42;2.00;;;1.80;;
11173;SDS011;5643;50.856;12.088;2023-10-09T11:03:42;2.03;;;1.83;;
11173;SDS011;5643;50.856;12.088;2023-10-09T11:19:18;2.43;;;2.23;;
11173;SDS011;5643;50.856;12.088;2023-10-09T11:22:23;2.20;;;2.00;;
11173;SDS011;5643;50.856;12.088;2023-10-09T11:31:40;2.50;;;2.10;;
11173;SDS011;5643;50.856;12.088;2023-10-09T11:40:47;2.70;;;2.50;;
11173;SDS011;5643;50.856;12.088;2023-10-09T11:43:48;2.50;;;2.30;;
11173;SDS011;5643;50.856;12.088;2023-10-09T11:46:23;2.90;;;2.30;;
11173;SDS011;5643;50.856;12.088;2023-10-09T11:52:13;2.70;;;2.10;;
11173;SDS011;5643;50.856;12.088;2023-10-09T11:55:02;2.70;;;2.50;;
11173;SDS011;5643;50.856;12.088;2023-10-09T11:58:16;2.40;;;2.20;;
11173;SDS011;5643;50.856;12.088;2023-10-09T12:04:55;2.50;;;2.27;;
11173;SDS011;5643;50.856;12.088;2023-10-09T12:07:26;2.67;;;2.47;;
11173;SDS011;5643;50.856;12.088;2023-10-09T12:10:15;3.23;;;2.50;;
11173;SDS011;5643;50.856;12.088;2023-10-09T12:13:01;2.47;;;2.20;;
11173;SDS011;5643;50.856;12.088;2023-10-09T12:19:25;2.43;;;2.23;;
11173;SDS011;5643;50.856;12.088;2023-10-09T12:22:06;2.30;;;2.10;;
11173;SDS011;5643;50.856;12.088;2023-10-09T12:24:57;5.03;;;4.53;;
11173;SDS011;5643;50.856;12.088;2023-10-09T12:30:25;9.97;;;8.90;;
11173;SDS011;5643;50.856;12.088;2023-10-09T12:33:14;9.87;;;8.70;;
11173;SDS011;5643;50.856;12.088;2023-10-09T12:39:11;7.03;;;6.33;;
11173;SDS011;5643;50.856;12.088;2023-10-09T12:41:58;5.83;;;5.23;;
11173;SDS011;5643;50.856;12.088;2023-10-09T12:48:05;3.80;;;3.50;;
11173;SDS011;5643;50.856;12.088;2023-10-09T12:50:58;2.93;;;2.73;;
11173;SDS011;5643;50.856;12.088;2023-10-09T12:59:34;2.67;;;2.47;;
11173;SDS011;5643;50.856;12.088;2023-10-09T13:02:05;2.60;;;2.40;;
11173;SDS011;5643;50.856;12.088;2023-10-09T13:05:17;2.33;;;2.10;;
11173;SDS011;5643;50.856;12.088;2023-10-09T13:08:00;2.40;;;2.20;;
11173;SDS011;5643;50.856;12.088;2023-10-09T13:10:49;1.80;;;1.70;;
11173;SDS011;5643;50.856;12.088;2023-10-09T13:13:51;2.90;;;2.03;;
11173;SDS011;5643;50.856;12.088;2023-10-09T13:22:19;2.67;;;2.33;;
11173;SDS011;5643;50.856;12.088;2023-10-09T13:28:50;2.37;;;2.17;;
11173;SDS011;5643;50.856;12.088;2023-10-09T13:31:30;2.30;;;2.10;;
11173;SDS011;5643;50.856;12.088;2023-10-09T13:35:16;2.43;;;2.23;;
11173;SDS011;5643;50.856;12.088;2023-10-09T13:37:33;2.23;;;2.03;;
11173;SDS011;5643;50.856;12.088;2023-10-09T13:40:02;2.20;;;2.00;;
11173;SDS011;5643;50.856;12.088;2023-10-09T13:49:06;2.17;;;1.93;;
11173;SDS011;5643;50.856;12.088;2023-10-09T13:51:53;2.53;;;2.10;;
11173;SDS011;5643;50.856;12.088;2023-10-09T14:01:15;2.37;;;2.07;;
11173;SDS011;5643;50.856;12.088;2023-10-09T14:04:04;1.90;;;1.80;;
11173;SDS011;5643;50.856;12.088;2023-10-09T14:06:47;2.43;;;2.20;;
11173;SDS011;5643;50.856;12.088;2023-10-09T14:09:23;2.17;;;1.97;;
11173;SDS011;5643;50.856;12.088;2023-10-09T14:12:32;2.50;;;2.30;;
11173;SDS011;5643;50.856;12.088;2023-10-09T14:15:04;2.67;;;2.40;;
11173;SDS011;5643;50.856;12.088;2023-10-09T14:18:04;2.50;;;2.30;;
11173;SDS011;5643;50.856;12.088;2023-10-09T14:20:47;2.20;;;2.00;;
11173;SDS011;5643;50.856;12.088;2023-10-09T14:23:29;2.77;;;2.33;;
11173;SDS011;5643;50.856;12.088;2023-10-09T14:26:16;2.43;;;2.17;;
11173;SDS011;5643;50.856;12.088;2023-10-09T14:28:50;2.47;;;2.27;;
11173;SDS011;5643;50.856;12.088;2023-10-09T14:31:29;2.23;;;2.03;;
11173;SDS011;5643;50.856;12.088;2023-10-09T14:34:19;2.70;;;2.50;;
11173;SDS011;5643;50.856;12.088;2023-10-09T14:37:30;2.07;;;1.70;;
11173;SDS011;5643;50.856;12.088;2023-10-09T14:40:03;1.97;;;1.87;;
11173;SDS011;5643;50.856;12.088;2023-10-09T14:42:45;2.40;;;2.20;;
11173;SDS011;5643;50.856;12.088;2023-10-09T14:45:26;2.40;;;2.10;;
11173;SDS011;5643;50.856;12.088;2023-10-09T14:48:13;2.27;;;1.93;;
11173;SDS011;5643;50.856;12.088;2023-10-09T14:51:16;2.40;;;2.20;;
11173;SDS011;5643;50.856;12.088;2023-10-09T14:54:07;2.80;;;2.53;;
11173;SDS011;5643;50.856;12.088;2023-10-09T14:56:54;2.40;;;2.20;;
11173;SDS011;5643;50.856;12.088;2023-10-09T14:59:44;2.43;;;2.23;;
11173;SDS011;5643;50.856;12.088;2023-10-09T15:02:24;2.97;;;2.67;;
11173;SDS011;5643;50.856;12.088;2023-10-09T15:05:08;3.53;;;2.50;;
11173;SDS011;5643;50.856;12.088;2023-10-09T15:07:43;3.13;;;2.83;;
11173;SDS011;5643;50.856;12.088;2023-10-09T15:10:23;3.10;;;2.80;;
11173;SDS011;5643;50.856;12.088;2023-10-09T15:12:55;2.77;;;2.57;;
11173;SDS011;5643;50.856;12.088;2023-10-09T15:15:28;2.90;;;2.60;;
11173;SDS011;5643;50.856;12.088;2023-10-09T15:18:14;2.93;;;2.63;;
11173;SDS011;5643;50.856;12.088;2023-10-09T15:20:45;3.37;;;2.70;;
11173;SDS011;5643;50.856;12.088;2023-10-09T15:35:16;3.80;;;3.03;;
11173;SDS011;5643;50.856;12.088;2023-10-09T15:37:47;4.53;;;3.30;;
11173;SDS011;5643;50.856;12.088;2023-10-09T15:40:21;3.63;;;3.33;;
11173;SDS011;5643;50.856;12.088;2023-10-09T15:42:53;3.60;;;3.03;;
11173;SDS011;5643;50.856;12.088;2023-10-09T15:45:42;3.23;;;2.90;;
11173;SDS011;5643;50.856;12.088;2023-10-09T15:48:19;3.50;;;3.20;;
11173;SDS011;5643;50.856;12.088;2023-10-09T15:51:04;2.90;;;2.60;;
11173;SDS011;5643;50.856;12.088;2023-10-09T15:53:42;3.17;;;2.27;;
11173;SDS011;5643;50.856;12.088;2023-10-09T15:56:15;2.90;;;2.60;;
11173;SDS011;5643;50.856;12.088;2023-10-09T15:58:57;3.50;;;2.67;;
11173;SDS011;5643;50.856;12.088;2023-10-09T16:01:27;2.83;;;2.57;;
11173;SDS011;5643;50.856;12.088;2023-10-09T16:13:55;3.13;;;2.80;;
11173;SDS011;5643;50.856;12.088;2023-10-09T16:16:42;4.17;;;3.57;;
11173;SDS011;5643;50.856;12.088;2023-10-09T16:19:25;3.87;;;3.50;;
11173;SDS011;5643;50.856;12.088;2023-10-09T16:22:03;3.50;;;3.20;;
11173;SDS011;5643;50.856;12.088;2023-10-09T16:24:59;3.23;;;2.93;;
11173;SDS011;5643;50.856;12.088;2023-10-09T16:28:56;2.90;;;2.60;;
11173;SDS011;5643;50.856;12.088;2023-10-09T16:31:17;2.90;;;2.60;;
11173;SDS011;5643;50.856;12.088;2023-10-09T16:33:57;2.80;;;2.60;;
11173;SDS011;5643;50.856;12.088;2023-10-09T16:36:26;2.43;;;2.23;;
11173;SDS011;5643;50.856;12.088;2023-10-09T16:38:55;2.40;;;2.13;;
11173;SDS011;5643;50.856;12.088;2023-10-09T16:44:59;3.63;;;2.40;;
11173;SDS011;5643;50.856;12.088;2023-10-09T16:50:45;2.80;;;2.13;;
11173;SDS011;5643;50.856;12.088;2023-10-09T16:53:29;2.50;;;2.30;;
11173;SDS011;5643;50.856;12.088;2023-10-09T16:56:06;2.90;;;2.70;;
11173;SDS011;5643;50.856;12.088;2023-10-09T17:01:41;3.27;;;2.97;;
11173;SDS011;5643;50.856;12.088;2023-10-09T17:04:11;4.03;;;2.70;;
11173;SDS011;5643;50.856;12.088;2023-10-09T17:06:45;2.77;;;2.57;;
11173;SDS011;5643;50.856;12.088;2023-10-09T17:09:12;4.10;;;2.70;;
11173;SDS011;5643;50.856;12.088;2023-10-09T17:11:40;2.70;;;2.50;;
11173;SDS011;5643;50.856;12.088;2023-10-09T17:17:13;3.37;;;2.67;;
11173;SDS011;5643;50.856;12.088;2023-10-09T17:19:51;3.07;;;2.77;;
11173;SDS011;5643;50.856;12.088;2023-10-09T17:22:29;2.63;;;2.37;;
11173;SDS011;5643;50.856;12.088;2023-10-09T17:24:59;2.83;;;2.17;;
11173;SDS011;5643;50.856;12.088;2023-10-09T17:30:20;2.57;;;2.37;;
11173;SDS011;5643;50.856;12.088;2023-10-09T17:32:48;3.00;;;2.70;;
11173;SDS011;5643;50.856;12.088;2023-10-09T17:35:39;2.40;;;2.20;;
11173;SDS011;5643;50.856;12.088;2023-10-09T17:38:53;2.60;;;2.40;;
11173;SDS011;5643;50.856;12.088;2023-10-09T17:41:32;3.43;;;2.60;;
11173;SDS011;5643;50.856;12.088;2023-10-09T17:44:17;2.43;;;2.23;;
11173;SDS011;5643;50.856;12.088;2023-10-09T17:46:50;2.60;;;2.40;;
11173;SDS011;5643;50.856;12.088;2023-10-09T17:49:18;2.60;;;2.40;;
11173;SDS011;5643;50.856;12.088;2023-10-09T17:51:52;2.77;;;2.47;;
11173;SDS011;5643;50.856;12.088;2023-10-09T17:54:23;2.17;;;2.03;;
11173;SDS011;5643;50.856;12.088;2023-10-09T17:56:52;2.30;;;2.10;;
11173;SDS011;5643;50.856;12.088;2023-10-09T17:59:22;3.13;;;2.47;;
11173;SDS011;5643;50.856;12.088;2023-10-09T18:02:07;2.83;;;2.53;;
11173;SDS011;5643;50.856;12.088;2023-10-09T18:05:34;2.50;;;2.23;;
11173;SDS011;5643;50.856;12.088;2023-10-09T18:08:13;2.17;;;2.03;;
11173;SDS011;5643;50.856;12.088;2023-10-09T18:10:53;2.13;;;1.97;;
11173;SDS011;5643;50.856;12.088;2023-10-09T18:13:24;2.33;;;2.13;;
11173;SDS011;5643;50.856;12.088;2023-10-09T18:16:03;2.50;;;2.30;;
11173;SDS011;5643;50.856;12.088;2023-10-09T18:18:40;2.43;;;2.20;;
11173;SDS011;5643;50.856;12.088;2023-10-09T18:21:17;2.73;;;2.10;;
11173;SDS011;5643;50.856;12.088;2023-10-09T18:26:49;1.80;;;1.70;;
11173;SDS011;5643;50.856;12.088;2023-10-09T18:29:49;2.07;;;1.97;;
11173;SDS011;5643;50.856;12.088;2023-10-09T18:32:21;1.70;;;1.60;;
11173;SDS011;5643;50.856;12.088;2023-10-09T18:34:50;2.07;;;1.97;;
11173;SDS011;5643;50.856;12.088;2023-10-09T18:37:41;2.27;;;1.57;;
11173;SDS011;5643;50.856;12.088;2023-10-09T18:40:09;1.77;;;1.67;;
11173;SDS011;5643;50.856;12.088;2023-10-09T18:42:48;2.50;;;2.30;;
11173;SDS011;5643;50.856;12.088;2023-10-09T18:45:39;2.73;;;2.53;;
11173;SDS011;5643;50.856;12.088;2023-10-09T18:48:18;2.63;;;2.43;;
11173;SDS011;5643;50.856;12.088;2023-10-09T18:51:19;3.03;;;2.80;;
11173;SDS011;5643;50.856;12.088;2023-10-09T18:53:48;3.07;;;2.77;;
11173;SDS011;5643;50.856;12.088;2023-10-09T18:56:19;2.60;;;2.40;;
11173;SDS011;5643;50.856;12.088;2023-10-09T18:58:56;2.60;;;2.40;;
11173;SDS011;5643;50.856;12.088;2023-10-09T19:01:25;2.50;;;2.30;;
11173;SDS011;5643;50.856;12.088;2023-10-09T19:03:55;2.60;;;2.40;;
11173;SDS011;5643;50.856;12.088;2023-10-09T19:06:26;2.57;;;2.37;;
11173;SDS011;5643;50.856;12.088;2023-10-09T19:08:55;3.17;;;2.80;;
11173;SDS011;5643;50.856;12.088;2023-10-09T19:11:34;2.57;;;2.37;;
11173;SDS011;5643;50.856;12.088;2023-10-09T19:14:08;2.40;;;2.20;;
11173;SDS011;5643;50.856;12.088;2023-10-09T19:16:37;2.73;;;2.17;;
11173;SDS011;5643;50.856;12.088;2023-10-09T19:19:12;2.10;;;1.90;;
11173;SDS011;5643;50.856;12.088;2023-10-09T19:24:41;2.47;;;2.27;;
11173;SDS011;5643;50.856;12.088;2023-10-09T19:27:14;2.47;;;2.27;;
11173;SDS011;5643;50.856;12.088;2023-10-09T19:36:17;2.57;;;2.37;;
11173;SDS011;5643;50.856;12.088;2023-10-09T19:38:55;2.70;;;2.50;;
11173;SDS011;5643;50.856;12.088;2023-10-09T19:48:16;2.60;;;2.40;;
11173;SDS011;5643;50.856;12.088;2023-10-09T19:50:48;2.30;;;2.10;;
11173;SDS011;5643;50.856;12.088;2023-10-09T19:53:36;2.60;;;2.40;;
11173;SDS011;5643;50.856;12.088;2023-10-09T19:59:57;2.57;;;2.37;;
11173;SDS011;5643;50.856;12.088;2023-10-09T20:02:49;2.80;;;2.60;;
11173;SDS011;5643;50.856;12.088;2023-10-09T20:05:58;2.50;;;2.30;;
11173;SDS011;5643;50.856;12.088;2023-10-09T20:08:40;2.77;;;2.57;;
11173;SDS011;5643;50.856;12.088;2023-10-09T20:14:14;3.00;;;2.40;;
11173;SDS011;5643;50.856;12.088;2023-10-09T20:16:57;2.53;;;2.33;;
11173;SDS011;5643;50.856;12.088;2023-10-09T20:23:05;2.67;;;2.47;;
11173;SDS011;5643;50.856;12.088;2023-10-09T20:25:57;2.37;;;2.17;;
11173;SDS011;5643;50.856;12.088;2023-10-09T20:28:34;2.00;;;1.90;;
11173;SDS011;5643;50.856;12.088;2023-10-09T20:31:17;2.60;;;2.40;;
11173;SDS011;5643;50.856;12.088;2023-10-09T20:33:47;2.40;;;2.20;;
11173;SDS011;5643;50.856;12.088;2023-10-09T20:36:17;2.67;;;2.47;;
11173;SDS011;5643;50.856;12.088;2023-10-09T20:48:35;3.03;;;2.73;;
11173;SDS011;5643;50.856;12.088;2023-10-09T20:54:40;2.57;;;2.37;;
11173;SDS011;5643;50.856;12.088;2023-10-09T20:57:11;2.27;;;2.07;;
11173;SDS011;5643;50.856;12.088;2023-10-09T20:59:49;2.47;;;2.27;;
11173;SDS011;5643;50.856;12.088;2023-10-09T21:03:00;2.70;;;2.10;;
11173;SDS011;5643;50.856;12.088;2023-10-09T21:08:53;2.60;;;2.40;;
11173;SDS011;5643;50.856;12.088;2023-10-09T21:11:25;2.17;;;1.97;;
11173;SDS011;5643;50.856;12.088;2023-10-09T21:14:29;2.40;;;2.20;;
11173;SDS011;5643;50.856;12.088;2023-10-09T21:17:12;2.50;;;2.30;;
11173;SDS011;5643;50.856;12.088;2023-10-09T21:19:54;2.80;;;2.60;;
11173;SDS011;5643;50.856;12.088;2023-10-09T21:22:58;4.57;;;3.40;;
11173;SDS011;5643;50.856;12.088;2023-10-09T21:29:01;2.63;;;2.43;;
11173;SDS011;5643;50.856;12.088;2023-10-09T21:35:46;3.13;;;2.60;;
11173;SDS011;5643;50.856;12.088;2023-10-09T21:38:19;3.10;;;2.80;;
11173;SDS011;5643;50.856;12.088;2023-10-09T21:40:54;2.90;;;2.63;;
11173;SDS011;5643;50.856;12.088;2023-10-09T21:44:39;2.40;;;2.20;;
11173;SDS011;5643;50.856;12.088;2023-10-09T21:49:49;2.63;;;2.40;;
11173;SDS011;5643;50.856;12.088;2023-10-09T21:52:42;2.57;;;2.37;;
11173;SDS011;5643;50.856;12.088;2023-10-09T21:59:08;3.17;;;2.60;;
11173;SDS011;5643;50.856;12.088;2023-10-09T22:01:55;2.43;;;2.23;;
11173;SDS011;5643;50.856;12.088;2023-10-09T22:04:31;2.90;;;2.60;;
11173;SDS011;5643;50.856;12.088;2023-10-09T22:19:41;2.57;;;2.37;;